FNLU/LAD METAR and TAF weather

Enter ICAO airport designator
Station Type Date Time Source
FNLU METAR 2021/03/09 11:00 UTC NOAA

FNLU 091100Z 27007KT 9999 SCT023 31/24 Q1009 NOSIG


Station Type Date Time Source
FNLU Decoded METAR 2021/03/09 11:00 UTC NOAA

Luanda, Angola (FNLU) 08-51S 013-14E 70M
Mar 09, 2021 - 06:00 AM EST / 2021.03.09 1100 UTC
Wind: from the W (270 degrees) at 8 MPH (7 KT):0
Visibility: greater than 7 mile(s):0
Sky conditions: partly cloudy
Temperature: 87 F (31 C)
Heat index: 95.7 F (35.4 C):1
Dew Point: 75 F (24 C)
Relative Humidity: 66%
Pressure (altimeter): 29.80 in. Hg (1009 hPa)
ob: FNLU 091100Z 27007KT 9999 SCT023 31/24 Q1009 NOSIG
cycle: 11

Station Type Date Time Source
FNLU TAF 2021/03/09 06:00 UTC NOAA

TAF FNLU 090500Z 0906/1012 VRB03KT 9000 SCT020 PROB40
TEMPO 0907/0911 8000 DZ
TEMPO 0912/0916 25010KT 9999 FEW020
BECMG 0922/0924 18006KT

Example: see airport list